sensor_id;sensor_type;location;lat;lon;timestamp;pressure;altitude;pressure_sealevel;temperature;humidity
7441;BME280;29616;51.950;8.572;2022-07-17T00:00:54;101081.56;;;12.30;100.00
7441;BME280;29616;51.950;8.572;2022-07-17T00:03:22;101099.59;;;12.32;100.00
7441;BME280;29616;51.950;8.572;2022-07-17T00:05:51;101084.91;;;12.33;100.00
7441;BME280;29616;51.950;8.572;2022-07-17T00:08:19;101092.84;;;12.27;100.00
7441;BME280;29616;51.950;8.572;2022-07-17T00:10:47;101088.63;;;12.23;100.00
7441;BME280;29616;51.950;8.572;2022-07-17T00:13:15;101088.47;;;12.14;100.00
7441;BME280;29616;51.950;8.572;2022-07-17T00:15:43;101090.66;;;12.21;100.00
7441;BME280;29616;51.950;8.572;2022-07-17T00:18:11;101088.09;;;12.29;100.00
7441;BME280;29616;51.950;8.572;2022-07-17T00:20:40;101095.28;;;12.30;100.00
7441;BME280;29616;51.950;8.572;2022-07-17T00:23:11;101054.59;;;12.15;100.00
7441;BME280;29616;51.950;8.572;2022-07-17T00:25:39;101079.31;;;12.35;100.00
7441;BME280;29616;51.950;8.572;2022-07-17T00:28:07;101087.22;;;12.38;100.00
7441;BME280;29616;51.950;8.572;2022-07-17T00:30:35;101074.81;;;12.34;100.00
7441;BME280;29616;51.950;8.572;2022-07-17T00:33:04;101085.13;;;12.11;100.00
7441;BME280;29616;51.950;8.572;2022-07-17T00:35:32;101076.72;;;11.93;100.00
7441;BME280;29616;51.950;8.572;2022-07-17T00:38:01;101080.69;;;11.80;100.00
7441;BME280;29616;51.950;8.572;2022-07-17T00:40:30;101080.44;;;11.62;100.00
7441;BME280;29616;51.950;8.572;2022-07-17T00:42:58;101072.56;;;11.48;100.00
7441;BME280;29616;51.950;8.572;2022-07-17T00:45:26;101096.06;;;11.50;100.00
7441;BME280;29616;51.950;8.572;2022-07-17T00:47:56;101087.91;;;11.39;100.00
7441;BME280;29616;51.950;8.572;2022-07-17T00:50:28;101091.66;;;11.38;100.00
7441;BME280;29616;51.950;8.572;2022-07-17T00:52:56;101084.41;;;11.28;100.00
7441;BME280;29616;51.950;8.572;2022-07-17T00:55:25;101073.38;;;11.18;100.00
7441;BME280;29616;51.950;8.572;2022-07-17T00:58:13;101066.97;;;11.08;100.00
7441;BME280;29616;51.950;8.572;2022-07-17T01:00:44;101078.53;;;11.12;100.00
7441;BME280;29616;51.950;8.572;2022-07-17T01:03:13;101093.44;;;11.08;100.00
7441;BME280;29616;51.950;8.572;2022-07-17T01:05:41;101089.78;;;10.98;100.00
7441;BME280;29616;51.950;8.572;2022-07-17T01:08:10;101070.94;;;10.83;100.00
7441;BME280;29616;51.950;8.572;2022-07-17T01:10:38;101094.16;;;10.89;100.00
7441;BME280;29616;51.950;8.572;2022-07-17T01:13:06;101102.25;;;10.90;100.00
7441;BME280;29616;51.950;8.572;2022-07-17T01:15:37;101103.44;;;10.77;100.00
7441;BME280;29616;51.950;8.572;2022-07-17T01:18:06;101105.81;;;10.59;100.00
7441;BME280;29616;51.950;8.572;2022-07-17T01:20:35;101089.13;;;10.42;100.00
7441;BME280;29616;51.950;8.572;2022-07-17T01:23:06;101097.22;;;10.43;100.00
7441;BME280;29616;51.950;8.572;2022-07-17T01:25:34;101106.38;;;10.53;100.00
7441;BME280;29616;51.950;8.572;2022-07-17T01:28:03;101102.16;;;10.38;100.00
7441;BME280;29616;51.950;8.572;2022-07-17T01:30:32;101096.22;;;10.22;100.00
7441;BME280;29616;51.950;8.572;2022-07-17T01:33:01;101101.97;;;10.19;100.00
7441;BME280;29616;51.950;8.572;2022-07-17T01:35:30;101105.19;;;10.13;100.00
7441;BME280;29616;51.950;8.572;2022-07-17T01:37:59;101108.53;;;10.05;100.00
7441;BME280;29616;51.950;8.572;2022-07-17T01:40:28;101109.91;;;10.00;100.00
7441;BME280;29616;51.950;8.572;2022-07-17T01:42:56;101110.03;;;9.87;100.00
7441;BME280;29616;51.950;8.572;2022-07-17T01:45:24;101115.59;;;9.74;100.00
7441;BME280;29616;51.950;8.572;2022-07-17T01:47:52;101115.84;;;9.71;100.00
7441;BME280;29616;51.950;8.572;2022-07-17T01:50:20;101118.19;;;9.65;100.00
7441;BME280;29616;51.950;8.572;2022-07-17T01:52:48;101118.59;;;9.60;100.00
7441;BME280;29616;51.950;8.572;2022-07-17T01:55:16;101111.38;;;9.59;100.00
7441;BME280;29616;51.950;8.572;2022-07-17T01:57:46;101118.69;;;9.59;100.00
7441;BME280;29616;51.950;8.572;2022-07-17T02:00:15;101121.06;;;9.52;100.00
7441;BME280;29616;51.950;8.572;2022-07-17T02:02:44;101116.94;;;9.47;100.00
7441;BME280;29616;51.950;8.572;2022-07-17T02:05:13;101115.56;;;9.41;100.00
7441;BME280;29616;51.950;8.572;2022-07-17T02:07:41;101091.13;;;9.29;100.00
7441;BME280;29616;51.950;8.572;2022-07-17T02:10:11;101092.72;;;9.20;100.00
7441;BME280;29616;51.950;8.572;2022-07-17T02:12:42;101086.25;;;9.21;100.00
7441;BME280;29616;51.950;8.572;2022-07-17T02:15:11;101099.31;;;9.29;100.00
7441;BME280;29616;51.950;8.572;2022-07-17T02:17:40;101102.38;;;9.24;100.00
7441;BME280;29616;51.950;8.572;2022-07-17T02:20:10;101110.56;;;9.24;100.00
7441;BME280;29616;51.950;8.572;2022-07-17T02:22:39;101096.19;;;9.22;100.00
7441;BME280;29616;51.950;8.572;2022-07-17T02:25:08;101121.09;;;9.18;100.00
7441;BME280;29616;51.950;8.572;2022-07-17T02:27:37;101112.00;;;9.06;100.00
7441;BME280;29616;51.950;8.572;2022-07-17T02:30:07;101089.91;;;8.98;100.00
7441;BME280;29616;51.950;8.572;2022-07-17T02:32:37;101112.97;;;9.05;100.00
7441;BME280;29616;51.950;8.572;2022-07-17T02:35:07;101105.44;;;9.08;100.00
7441;BME280;29616;51.950;8.572;2022-07-17T02:37:36;101105.38;;;8.97;100.00
7441;BME280;29616;51.950;8.572;2022-07-17T02:40:06;101092.06;;;8.82;100.00
7441;BME280;29616;51.950;8.572;2022-07-17T02:42:34;101100.31;;;8.93;100.00
7441;BME280;29616;51.950;8.572;2022-07-17T02:45:03;101094.28;;;8.77;100.00
7441;BME280;29616;51.950;8.572;2022-07-17T02:47:33;101102.75;;;8.85;100.00
7441;BME280;29616;51.950;8.572;2022-07-17T02:50:05;101092.38;;;8.66;100.00
7441;BME280;29616;51.950;8.572;2022-07-17T02:52:33;101110.00;;;8.73;100.00
7441;BME280;29616;51.950;8.572;2022-07-17T02:55:01;101117.72;;;8.79;100.00
7441;BME280;29616;51.950;8.572;2022-07-17T02:57:29;101119.84;;;8.87;100.00
7441;BME280;29616;51.950;8.572;2022-07-17T02:59:57;101120.84;;;8.86;100.00
7441;BME280;29616;51.950;8.572;2022-07-17T03:02:26;101114.13;;;8.79;100.00
7441;BME280;29616;51.950;8.572;2022-07-17T03:04:54;101121.03;;;8.72;100.00
7441;BME280;29616;51.950;8.572;2022-07-17T03:07:23;101114.34;;;8.76;100.00
7441;BME280;29616;51.950;8.572;2022-07-17T03:09:51;101130.75;;;8.87;100.00
7441;BME280;29616;51.950;8.572;2022-07-17T03:12:20;101124.63;;;8.72;100.00
7441;BME280;29616;51.950;8.572;2022-07-17T03:14:47;101125.53;;;8.60;100.00
7441;BME280;29616;51.950;8.572;2022-07-17T03:17:16;101127.75;;;8.55;100.00
7441;BME280;29616;51.950;8.572;2022-07-17T03:19:44;101129.59;;;8.54;100.00
7441;BME280;29616;51.950;8.572;2022-07-17T03:22:12;101121.91;;;8.48;100.00
7441;BME280;29616;51.950;8.572;2022-07-17T03:24:42;101123.63;;;8.49;100.00
7441;BME280;29616;51.950;8.572;2022-07-17T03:27:10;101130.59;;;8.53;100.00
7441;BME280;29616;51.950;8.572;2022-07-17T03:29:38;101131.88;;;8.61;100.00
7441;BME280;29616;51.950;8.572;2022-07-17T03:32:07;101134.59;;;8.61;100.00
7441;BME280;29616;51.950;8.572;2022-07-17T03:34:35;101133.63;;;8.62;100.00
7441;BME280;29616;51.950;8.572;2022-07-17T03:37:03;101140.03;;;8.61;100.00
7441;BME280;29616;51.950;8.572;2022-07-17T03:39:32;101143.88;;;8.58;100.00
7441;BME280;29616;51.950;8.572;2022-07-17T03:42:01;101143.75;;;8.60;100.00
7441;BME280;29616;51.950;8.572;2022-07-17T03:44:29;101149.38;;;8.69;100.00
7441;BME280;29616;51.950;8.572;2022-07-17T03:46:57;101146.81;;;8.79;100.00
7441;BME280;29616;51.950;8.572;2022-07-17T03:49:26;101135.19;;;8.77;100.00
7441;BME280;29616;51.950;8.572;2022-07-17T03:51:54;101100.13;;;8.60;100.00
7441;BME280;29616;51.950;8.572;2022-07-17T03:54:22;101146.41;;;8.96;100.00
7441;BME280;29616;51.950;8.572;2022-07-17T03:56:50;101152.38;;;9.01;100.00
7441;BME280;29616;51.950;8.572;2022-07-17T03:59:20;101157.66;;;9.15;100.00
7441;BME280;29616;51.950;8.572;2022-07-17T04:01:48;101155.22;;;9.34;100.00
7441;BME280;29616;51.950;8.572;2022-07-17T04:04:16;101159.84;;;9.56;100.00
7441;BME280;29616;51.950;8.572;2022-07-17T04:06:44;101157.28;;;9.65;100.00
7441;BME280;29616;51.950;8.572;2022-07-17T04:09:12;101159.00;;;9.66;100.00
7441;BME280;29616;51.950;8.572;2022-07-17T04:11:40;101161.97;;;9.63;100.00
7441;BME280;29616;51.950;8.572;2022-07-17T04:14:08;101169.59;;;9.71;100.00
7441;BME280;29616;51.950;8.572;2022-07-17T04:16:38;101164.50;;;9.77;100.00
7441;BME280;29616;51.950;8.572;2022-07-17T04:19:06;101146.00;;;9.70;100.00
7441;BME280;29616;51.950;8.572;2022-07-17T04:21:34;101159.78;;;9.91;100.00
7441;BME280;29616;51.950;8.572;2022-07-17T04:24:03;101148.38;;;9.97;100.00
7441;BME280;29616;51.950;8.572;2022-07-17T04:26:31;101116.59;;;9.96;100.00
7441;BME280;29616;51.950;8.572;2022-07-17T04:29:02;101115.47;;;10.09;100.00
7441;BME280;29616;51.950;8.572;2022-07-17T04:31:30;101116.75;;;10.16;100.00
7441;BME280;29616;51.950;8.572;2022-07-17T04:34:02;101124.06;;;10.27;100.00
7441;BME280;29616;51.950;8.572;2022-07-17T04:36:30;101119.44;;;10.39;100.00
7441;BME280;29616;51.950;8.572;2022-07-17T04:38:59;101112.94;;;10.62;100.00
7441;BME280;29616;51.950;8.572;2022-07-17T04:41:27;101110.00;;;10.85;100.00
7441;BME280;29616;51.950;8.572;2022-07-17T04:43:55;101113.88;;;11.04;100.00
7441;BME280;29616;51.950;8.572;2022-07-17T04:46:23;101126.19;;;11.30;100.00
7441;BME280;29616;51.950;8.572;2022-07-17T04:48:52;101133.44;;;11.61;100.00
7441;BME280;29616;51.950;8.572;2022-07-17T04:51:21;101160.84;;;11.82;100.00
7441;BME280;29616;51.950;8.572;2022-07-17T04:53:49;101184.53;;;12.13;100.00
7441;BME280;29616;51.950;8.572;2022-07-17T04:56:17;101193.75;;;12.42;100.00
7441;BME280;29616;51.950;8.572;2022-07-17T04:58:48;101170.47;;;12.86;100.00
7441;BME280;29616;51.950;8.572;2022-07-17T05:01:16;101157.78;;;13.04;100.00
7441;BME280;29616;51.950;8.572;2022-07-17T05:03:45;101175.28;;;13.42;100.00
7441;BME280;29616;51.950;8.572;2022-07-17T05:06:13;101180.72;;;13.89;100.00
7441;BME280;29616;51.950;8.572;2022-07-17T05:08:42;101160.25;;;14.21;100.00
7441;BME280;29616;51.950;8.572;2022-07-17T05:11:10;101146.59;;;14.66;100.00
7441;BME280;29616;51.950;8.572;2022-07-17T05:13:38;101162.91;;;15.12;100.00
7441;BME280;29616;51.950;8.572;2022-07-17T05:16:07;101164.16;;;15.70;100.00
7441;BME280;29616;51.950;8.572;2022-07-17T05:18:35;101166.44;;;16.01;100.00
7441;BME280;29616;51.950;8.572;2022-07-17T05:21:03;101158.72;;;16.38;100.00
7441;BME280;29616;51.950;8.572;2022-07-17T05:23:31;101160.53;;;16.89;100.00
7441;BME280;29616;51.950;8.572;2022-07-17T05:26:01;101138.84;;;17.18;100.00
7441;BME280;29616;51.950;8.572;2022-07-17T05:28:29;101160.44;;;17.39;100.00
7441;BME280;29616;51.950;8.572;2022-07-17T05:31:04;101144.91;;;17.86;100.00
7441;BME280;29616;51.950;8.572;2022-07-17T05:33:32;101141.31;;;18.41;100.00
7441;BME280;29616;51.950;8.572;2022-07-17T05:36:00;101142.72;;;18.29;100.00
7441;BME280;29616;51.950;8.572;2022-07-17T05:38:28;101138.34;;;18.50;100.00
7441;BME280;29616;51.950;8.572;2022-07-17T05:40:57;101140.97;;;18.44;100.00
7441;BME280;29616;51.950;8.572;2022-07-17T05:43:26;101126.91;;;18.61;100.00
7441;BME280;29616;51.950;8.572;2022-07-17T05:45:56;101106.72;;;18.84;100.00
7441;BME280;29616;51.950;8.572;2022-07-17T05:48:24;101128.00;;;18.83;100.00
7441;BME280;29616;51.950;8.572;2022-07-17T05:50:53;101121.91;;;19.64;100.00
7441;BME280;29616;51.950;8.572;2022-07-17T05:53:21;101121.59;;;20.11;100.00
7441;BME280;29616;51.950;8.572;2022-07-17T05:55:49;101125.69;;;20.73;100.00
7441;BME280;29616;51.950;8.572;2022-07-17T05:58:17;101133.19;;;21.23;100.00
7441;BME280;29616;51.950;8.572;2022-07-17T06:00:47;101138.06;;;20.71;100.00
7441;BME280;29616;51.950;8.572;2022-07-17T06:03:16;101121.00;;;21.24;100.00
7441;BME280;29616;51.950;8.572;2022-07-17T06:05:44;101133.00;;;22.16;100.00
7441;BME280;29616;51.950;8.572;2022-07-17T06:08:12;101142.91;;;21.97;100.00
7441;BME280;29616;51.950;8.572;2022-07-17T06:10:42;101155.19;;;21.60;100.00
7441;BME280;29616;51.950;8.572;2022-07-17T06:13:10;101153.53;;;21.24;100.00
7441;BME280;29616;51.950;8.572;2022-07-17T06:15:39;101157.16;;;21.45;100.00
7441;BME280;29616;51.950;8.572;2022-07-17T06:18:09;101156.50;;;21.43;100.00
7441;BME280;29616;51.950;8.572;2022-07-17T06:20:37;101147.81;;;21.95;100.00
7441;BME280;29616;51.950;8.572;2022-07-17T06:23:05;101141.91;;;22.67;98.19
7441;BME280;29616;51.950;8.572;2022-07-17T06:25:33;101154.78;;;22.74;95.83
7441;BME280;29616;51.950;8.572;2022-07-17T06:28:02;101147.22;;;23.16;91.72
7441;BME280;29616;51.950;8.572;2022-07-17T06:30:30;101155.56;;;23.83;87.16
7441;BME280;29616;51.950;8.572;2022-07-17T06:32:58;101137.00;;;24.80;78.86
7441;BME280;29616;51.950;8.572;2022-07-17T06:35:28;101151.69;;;23.77;82.80
7441;BME280;29616;51.950;8.572;2022-07-17T06:37:57;101143.34;;;23.04;88.85
7441;BME280;29616;51.950;8.572;2022-07-17T06:40:28;101146.97;;;23.84;82.59
7441;BME280;29616;51.950;8.572;2022-07-17T06:42:59;101156.31;;;24.88;74.50
7441;BME280;29616;51.950;8.572;2022-07-17T06:45:27;101165.59;;;25.26;67.97
7441;BME280;29616;51.950;8.572;2022-07-17T06:47:56;101174.00;;;23.64;75.76
7441;BME280;29616;51.950;8.572;2022-07-17T06:50:25;101167.13;;;23.60;84.47
7441;BME280;29616;51.950;8.572;2022-07-17T06:52:54;101162.66;;;25.08;71.13
7441;BME280;29616;51.950;8.572;2022-07-17T06:55:25;101167.34;;;25.90;66.29
7441;BME280;29616;51.950;8.572;2022-07-17T06:57:54;101177.84;;;24.68;68.49
7441;BME280;29616;51.950;8.572;2022-07-17T07:00:22;101179.19;;;23.87;74.69
7441;BME280;29616;51.950;8.572;2022-07-17T07:02:50;101170.06;;;24.77;70.11
7441;BME280;29616;51.950;8.572;2022-07-17T07:05:18;101156.78;;;24.72;70.22
7441;BME280;29616;51.950;8.572;2022-07-17T07:07:46;101139.03;;;23.68;75.96
7441;BME280;29616;51.950;8.572;2022-07-17T07:10:15;101153.31;;;24.70;70.75
7441;BME280;29616;51.950;8.572;2022-07-17T07:12:43;101138.28;;;24.71;70.48
7441;BME280;29616;51.950;8.572;2022-07-17T07:15:12;101135.81;;;23.97;71.40
7441;BME280;29616;51.950;8.572;2022-07-17T07:17:41;101148.66;;;24.38;71.25
7441;BME280;29616;51.950;8.572;2022-07-17T07:20:10;101136.22;;;26.05;63.11
7441;BME280;29616;51.950;8.572;2022-07-17T07:22:38;101151.91;;;27.57;56.28
7441;BME280;29616;51.950;8.572;2022-07-17T07:25:07;101153.59;;;28.00;52.86
7441;BME280;29616;51.950;8.572;2022-07-17T07:27:37;101136.53;;;27.12;54.49
7441;BME280;29616;51.950;8.572;2022-07-17T07:30:06;101149.03;;;27.16;54.44
7441;BME280;29616;51.950;8.572;2022-07-17T07:32:37;101142.88;;;27.37;55.00
7441;BME280;29616;51.950;8.572;2022-07-17T07:35:07;101149.31;;;26.54;55.67
7441;BME280;29616;51.950;8.572;2022-07-17T07:37:36;101148.44;;;25.16;64.23
7441;BME280;29616;51.950;8.572;2022-07-17T07:40:06;101140.34;;;24.95;66.62
7441;BME280;29616;51.950;8.572;2022-07-17T07:42:36;101141.81;;;26.05;62.29
7441;BME280;29616;51.950;8.572;2022-07-17T07:45:06;101138.13;;;25.55;62.47
7441;BME280;29616;51.950;8.572;2022-07-17T07:47:40;101149.97;;;26.06;58.99
7441;BME280;29616;51.950;8.572;2022-07-17T07:50:09;101141.19;;;25.78;61.61
7441;BME280;29616;51.950;8.572;2022-07-17T07:52:39;101142.63;;;25.56;61.46
7441;BME280;29616;51.950;8.572;2022-07-17T07:55:08;101156.28;;;24.95;66.37
7441;BME280;29616;51.950;8.572;2022-07-17T07:57:47;101171.63;;;25.23;65.28
7441;BME280;29616;51.950;8.572;2022-07-17T08:00:16;101146.97;;;25.52;62.29
7441;BME280;29616;51.950;8.572;2022-07-17T08:02:45;101163.81;;;25.39;64.93
7441;BME280;29616;51.950;8.572;2022-07-17T08:05:13;101155.50;;;24.55;66.57
7441;BME280;29616;51.950;8.572;2022-07-17T08:07:41;101169.66;;;26.24;61.16
7441;BME280;29616;51.950;8.572;2022-07-17T08:10:09;101159.44;;;26.55;57.24
7441;BME280;29616;51.950;8.572;2022-07-17T08:12:38;101166.06;;;26.60;58.92
7441;BME280;29616;51.950;8.572;2022-07-17T08:15:14;101160.34;;;26.30;59.07
7441;BME280;29616;51.950;8.572;2022-07-17T08:17:43;101139.44;;;25.08;64.77
7441;BME280;29616;51.950;8.572;2022-07-17T08:20:12;101156.38;;;24.49;67.70
7441;BME280;29616;51.950;8.572;2022-07-17T08:22:41;101152.84;;;24.93;68.33
7441;BME280;29616;51.950;8.572;2022-07-17T08:25:30;101165.59;;;25.26;62.68
7441;BME280;29616;51.950;8.572;2022-07-17T08:27:59;101180.00;;;25.23;62.51
7441;BME280;29616;51.950;8.572;2022-07-17T08:30:29;101173.59;;;24.06;64.64
7441;BME280;29616;51.950;8.572;2022-07-17T08:33:02;101164.16;;;24.34;61.67
7441;BME280;29616;51.950;8.572;2022-07-17T08:35:30;101170.78;;;24.59;63.18
7441;BME280;29616;51.950;8.572;2022-07-17T08:37:59;101176.25;;;25.43;59.40
7441;BME280;29616;51.950;8.572;2022-07-17T08:40:29;101166.78;;;26.06;57.02
7441;BME280;29616;51.950;8.572;2022-07-17T08:43:00;101164.25;;;25.98;57.27
7441;BME280;29616;51.950;8.572;2022-07-17T08:45:29;101176.72;;;26.02;55.71
7441;BME280;29616;51.950;8.572;2022-07-17T08:47:58;101185.97;;;25.78;56.22
7441;BME280;29616;51.950;8.572;2022-07-17T08:50:29;101176.19;;;25.56;56.85
7441;BME280;29616;51.950;8.572;2022-07-17T08:52:58;101179.78;;;25.69;57.50
7441;BME280;29616;51.950;8.572;2022-07-17T08:55:27;101190.28;;;25.74;55.94
7441;BME280;29616;51.950;8.572;2022-07-17T08:57:56;101185.44;;;26.43;54.65
7441;BME280;29616;51.950;8.572;2022-07-17T09:00:25;101186.63;;;26.05;56.38
7441;BME280;29616;51.950;8.572;2022-07-17T09:02:56;101185.41;;;25.94;55.92
7441;BME280;29616;51.950;8.572;2022-07-17T09:05:26;101180.00;;;25.68;57.75
7441;BME280;29616;51.950;8.572;2022-07-17T09:07:55;101197.06;;;25.91;57.18
7441;BME280;29616;51.950;8.572;2022-07-17T09:10:32;101195.41;;;25.39;57.09
7441;BME280;29616;51.950;8.572;2022-07-17T09:13:01;101199.97;;;25.33;59.27
7441;BME280;29616;51.950;8.572;2022-07-17T09:15:32;101176.31;;;26.48;52.79
7441;BME280;29616;51.950;8.572;2022-07-17T09:18:02;101180.28;;;26.40;52.31
7441;BME280;29616;51.950;8.572;2022-07-17T09:20:31;101183.91;;;26.66;51.01
7441;BME280;29616;51.950;8.572;2022-07-17T09:23:01;101184.50;;;26.49;52.09
7441;BME280;29616;51.950;8.572;2022-07-17T09:25:35;101188.06;;;26.38;52.29
7441;BME280;29616;51.950;8.572;2022-07-17T09:28:05;101180.00;;;26.67;51.05
7441;BME280;29616;51.950;8.572;2022-07-17T09:30:35;101167.38;;;25.59;54.42
7441;BME280;29616;51.950;8.572;2022-07-17T09:33:06;101184.78;;;25.61;55.47
7441;BME280;29616;51.950;8.572;2022-07-17T09:35:44;101176.91;;;25.00;55.25
7441;BME280;29616;51.950;8.572;2022-07-17T09:38:13;101180.19;;;25.28;54.79
7441;BME280;29616;51.950;8.572;2022-07-17T09:40:47;101182.31;;;25.77;56.69
7441;BME280;29616;51.950;8.572;2022-07-17T09:43:41;101178.16;;;26.61;53.02
7441;BME280;29616;51.950;8.572;2022-07-17T09:46:14;101173.81;;;27.19;51.63
7441;BME280;29616;51.950;8.572;2022-07-17T09:48:45;101176.00;;;27.77;48.55
7441;BME280;29616;51.950;8.572;2022-07-17T09:51:19;101171.50;;;26.80;49.67
7441;BME280;29616;51.950;8.572;2022-07-17T09:53:49;101171.72;;;27.74;46.93
7441;BME280;29616;51.950;8.572;2022-07-17T09:56:22;101174.31;;;27.76;46.30
7441;BME280;29616;51.950;8.572;2022-07-17T09:58:52;101167.72;;;27.82;46.14
7441;BME280;29616;51.950;8.572;2022-07-17T10:01:21;101163.63;;;27.06;50.48
7441;BME280;29616;51.950;8.572;2022-07-17T10:03:51;101163.94;;;26.98;50.54
7441;BME280;29616;51.950;8.572;2022-07-17T10:06:21;101163.84;;;27.53;48.52
7441;BME280;29616;51.950;8.572;2022-07-17T10:08:50;101152.41;;;27.66;48.67
7441;BME280;29616;51.950;8.572;2022-07-17T10:11:19;101168.59;;;28.23;47.37
7441;BME280;29616;51.950;8.572;2022-07-17T10:13:50;101145.00;;;28.71;45.49
7441;BME280;29616;51.950;8.572;2022-07-17T10:16:23;101161.00;;;28.82;46.35
7441;BME280;29616;51.950;8.572;2022-07-17T10:18:55;101152.69;;;28.75;43.22
7441;BME280;29616;51.950;8.572;2022-07-17T10:21:27;101143.31;;;27.82;45.29
7441;BME280;29616;51.950;8.572;2022-07-17T10:24:16;101166.34;;;28.37;45.48
7441;BME280;29616;51.950;8.572;2022-07-17T10:26:45;101150.25;;;28.67;45.09
7441;BME280;29616;51.950;8.572;2022-07-17T10:29:26;101161.63;;;28.61;45.09
7441;BME280;29616;51.950;8.572;2022-07-17T10:31:56;101157.97;;;29.12;44.51
7441;BME280;29616;51.950;8.572;2022-07-17T10:34:40;101151.94;;;28.80;45.21
7441;BME280;29616;51.950;8.572;2022-07-17T10:37:16;101143.50;;;28.80;44.56
7441;BME280;29616;51.950;8.572;2022-07-17T10:40:10;101154.19;;;29.06;45.10
7441;BME280;29616;51.950;8.572;2022-07-17T10:42:53;101161.59;;;28.14;45.22
7441;BME280;29616;51.950;8.572;2022-07-17T10:45:28;101169.03;;;28.32;46.98
7441;BME280;29616;51.950;8.572;2022-07-17T10:48:01;101166.50;;;28.31;46.23
7441;BME280;29616;51.950;8.572;2022-07-17T10:50:33;101168.09;;;28.38;44.46
7441;BME280;29616;51.950;8.572;2022-07-17T10:53:14;101163.56;;;27.84;45.54
7441;BME280;29616;51.950;8.572;2022-07-17T10:55:51;101134.53;;;28.95;44.17
7441;BME280;29616;51.950;8.572;2022-07-17T10:58:24;101167.28;;;29.52;43.15
7441;BME280;29616;51.950;8.572;2022-07-17T11:01:12;101167.28;;;29.24;42.67
7441;BME280;29616;51.950;8.572;2022-07-17T11:03:42;101164.19;;;28.74;43.13
7441;BME280;29616;51.950;8.572;2022-07-17T11:06:14;101156.47;;;28.46;43.86
7441;BME280;29616;51.950;8.572;2022-07-17T11:08:45;101162.41;;;29.08;43.06
7441;BME280;29616;51.950;8.572;2022-07-17T11:11:14;101165.50;;;29.46;41.99
7441;BME280;29616;51.950;8.572;2022-07-17T11:13:53;101168.69;;;28.52;42.62
7441;BME280;29616;51.950;8.572;2022-07-17T11:16:27;101162.59;;;30.02;41.08
7441;BME280;29616;51.950;8.572;2022-07-17T11:18:56;101155.91;;;31.13;39.11
7441;BME280;29616;51.950;8.572;2022-07-17T11:21:27;101157.47;;;30.66;39.15
7441;BME280;29616;51.950;8.572;2022-07-17T11:23:56;101145.81;;;30.41;38.86
7441;BME280;29616;51.950;8.572;2022-07-17T11:26:25;101153.78;;;31.26;37.70
7441;BME280;29616;51.950;8.572;2022-07-17T11:28:55;101144.19;;;30.83;37.43
7441;BME280;29616;51.950;8.572;2022-07-17T11:31:29;101154.66;;;31.26;37.94
7441;BME280;29616;51.950;8.572;2022-07-17T11:33:59;101152.94;;;31.03;37.87
7441;BME280;29616;51.950;8.572;2022-07-17T11:36:30;101157.59;;;30.93;37.26
7441;BME280;29616;51.950;8.572;2022-07-17T11:39:01;101155.00;;;30.53;37.11
7441;BME280;29616;51.950;8.572;2022-07-17T11:41:31;101154.94;;;30.15;38.30
7441;BME280;29616;51.950;8.572;2022-07-17T11:44:00;101157.25;;;30.51;38.15
7441;BME280;29616;51.950;8.572;2022-07-17T11:46:30;101153.91;;;30.54;37.57
7441;BME280;29616;51.950;8.572;2022-07-17T11:48:59;101148.97;;;30.11;37.97
7441;BME280;29616;51.950;8.572;2022-07-17T11:51:37;101153.72;;;30.11;38.76
7441;BME280;29616;51.950;8.572;2022-07-17T11:54:08;101150.66;;;30.45;38.06
7441;BME280;29616;51.950;8.572;2022-07-17T11:56:36;101136.50;;;30.79;37.41
7441;BME280;29616;51.950;8.572;2022-07-17T11:59:04;101142.38;;;30.94;36.61
7441;BME280;29616;51.950;8.572;2022-07-17T12:01:41;101156.75;;;30.92;35.95
7441;BME280;29616;51.950;8.572;2022-07-17T12:04:11;101151.78;;;30.11;36.12
7441;BME280;29616;51.950;8.572;2022-07-17T12:06:45;101142.28;;;30.89;36.48
7441;BME280;29616;51.950;8.572;2022-07-17T12:09:15;101143.97;;;30.68;35.27
7441;BME280;29616;51.950;8.572;2022-07-17T12:11:53;101141.34;;;30.12;36.75
7441;BME280;29616;51.950;8.572;2022-07-17T12:14:21;101145.44;;;30.21;36.42
7441;BME280;29616;51.950;8.572;2022-07-17T12:16:50;101143.88;;;31.01;35.53
7441;BME280;29616;51.950;8.572;2022-07-17T12:19:25;101146.41;;;30.98;35.72
7441;BME280;29616;51.950;8.572;2022-07-17T12:21:58;101145.91;;;31.06;35.35
7441;BME280;29616;51.950;8.572;2022-07-17T12:24:30;101137.44;;;31.06;34.95
7441;BME280;29616;51.950;8.572;2022-07-17T12:27:01;101134.38;;;31.07;35.10
7441;BME280;29616;51.950;8.572;2022-07-17T12:29:29;101127.50;;;31.47;34.37
7441;BME280;29616;51.950;8.572;2022-07-17T12:32:02;101136.16;;;30.75;33.73
7441;BME280;29616;51.950;8.572;2022-07-17T12:34:31;101134.50;;;31.17;33.74
7441;BME280;29616;51.950;8.572;2022-07-17T12:37:01;101133.47;;;30.85;33.31
7441;BME280;29616;51.950;8.572;2022-07-17T12:39:29;101115.13;;;31.04;33.77
7441;BME280;29616;51.950;8.572;2022-07-17T12:41:57;101117.41;;;30.86;34.86
7441;BME280;29616;51.950;8.572;2022-07-17T12:44:26;101128.88;;;30.41;35.36
7441;BME280;29616;51.950;8.572;2022-07-17T12:46:55;101109.84;;;30.31;35.09
7441;BME280;29616;51.950;8.572;2022-07-17T12:49:23;101116.34;;;30.70;35.31
7441;BME280;29616;51.950;8.572;2022-07-17T12:51:52;101106.78;;;31.14;34.43
7441;BME280;29616;51.950;8.572;2022-07-17T12:54:22;101110.41;;;31.58;33.16
7441;BME280;29616;51.950;8.572;2022-07-17T12:56:50;101108.94;;;32.09;32.04
7441;BME280;29616;51.950;8.572;2022-07-17T12:59:19;101101.91;;;31.32;32.83
7441;BME280;29616;51.950;8.572;2022-07-17T13:01:48;101106.41;;;31.54;32.22
7441;BME280;29616;51.950;8.572;2022-07-17T13:04:17;101112.72;;;31.61;32.03
7441;BME280;29616;51.950;8.572;2022-07-17T13:06:47;101096.97;;;32.02;31.72
7441;BME280;29616;51.950;8.572;2022-07-17T13:09:15;101109.22;;;31.54;32.08
7441;BME280;29616;51.950;8.572;2022-07-17T13:11:47;101103.00;;;31.52;31.89